Time;durP1;ratioP1;P1;durP2;ratioP2;P2;SDS_P1;SDS_P2;PMS_P1;PMS_P2;Temp;Humidity;BMP_temperature;BMP_pressure;BME280_temperature;BME280_humidity;BME280_pressure;Samples;Min_cycle;Max_cycle;Signal;HPM_P1;HPM_P2
2022/12/19 00:01:35;;;;;;;11.10;9.30;;;;;;;;;;105143;1313;22733;-34
2022/12/19 00:04:14;;;;;;;12.20;8.90;;;;;;;;;;105194;1313;22532;-34
2022/12/19 00:06:48;;;;;;;11.90;9.40;;;;;;;;;;105083;1310;22530;-34
2022/12/19 00:09:22;;;;;;;11.60;9.20;;;;;;;;;;105109;1310;24901;-34
2022/12/19 00:11:56;;;;;;;11.80;9.10;;;;;;;;;;105076;1316;22538;-34
2022/12/19 00:14:30;;;;;;;11.50;9.40;;;;;;;;;;105124;1310;22533;-34
2022/12/19 00:17:04;;;;;;;12.20;9.30;;;;;;;;;;105151;1316;22541;-34
2022/12/19 00:19:38;;;;;;;11.90;9.10;;;;;;;;;;105173;1310;25359;-34
2022/12/19 00:22:12;;;;;;;11.30;8.80;;;;;;;;;;105105;1313;22531;-34
2022/12/19 00:24:45;;;;;;;10.70;8.60;;;;;;;;;;105065;1316;22543;-34
2022/12/19 00:27:20;;;;;;;11.30;8.80;;;;;;;;;;105088;1297;25956;-34
2022/12/19 00:29:53;;;;;;;11.30;8.80;;;;;;;;;;105092;1304;25310;-34
2022/12/19 00:32:27;;;;;;;12.10;8.90;;;;;;;;;;105076;1304;23279;-34
2022/12/19 00:35:01;;;;;;;12.10;8.80;;;;;;;;;;105150;1308;22549;-34
2022/12/19 00:37:35;;;;;;;11.20;8.50;;;;;;;;;;105164;1316;22535;-34
2022/12/19 00:40:14;;;;;;;11.90;8.70;;;;;;;;;;105159;1316;22546;-34
2022/12/19 00:42:48;;;;;;;11.10;8.30;;;;;;;;;;105161;1316;22545;-34
2022/12/19 00:45:26;;;;;;;11.20;8.50;;;;;;;;;;105100;1297;24834;-34
2022/12/19 00:48:01;;;;;;;11.40;8.20;;;;;;;;;;105079;1308;25592;-34
2022/12/19 00:50:35;;;;;;;11.30;8.30;;;;;;;;;;105085;1312;22545;-34
2022/12/19 00:53:09;;;;;;;10.50;7.70;;;;;;;;;;105066;1313;22538;-33
2022/12/19 00:55:43;;;;;;;11.30;8.30;;;;;;;;;;105125;1314;22548;-33
2022/12/19 00:58:16;;;;;;;12.10;8.40;;;;;;;;;;105133;1304;22544;-33
2022/12/19 01:00:50;;;;;;;11.00;8.30;;;;;;;;;;105164;1311;22524;-34
2022/12/19 01:03:24;;;;;;;11.40;8.60;;;;;;;;;;105111;1313;22565;-34
2022/12/19 01:05:58;;;;;;;10.20;7.90;;;;;;;;;;105083;1305;22535;-34
2022/12/19 01:08:32;;;;;;;10.20;7.30;;;;;;;;;;105111;1304;22574;-33
2022/12/19 01:11:07;;;;;;;10.70;7.20;;;;;;;;;;105082;1312;22541;-34
2022/12/19 01:13:43;;;;;;;10.90;8.00;;;;;;;;;;105073;1316;22548;-34
2022/12/19 01:16:17;;;;;;;9.90;7.60;;;;;;;;;;105161;1316;23826;-34
2022/12/19 01:18:52;;;;;;;9.40;7.10;;;;;;;;;;105136;1316;22535;-34
2022/12/19 01:21:24;;;;;;;;;;;;;;;;;;105165;1313;22516;-33
2022/12/19 01:23:58;;;;;;;9.40;7.60;;;;;;;;;;105092;1313;22542;-34
2022/12/19 01:26:32;;;;;;;10.30;7.90;;;;;;;;;;105078;1310;24855;-34
2022/12/19 01:29:07;;;;;;;9.70;6.80;;;;;;;;;;105120;1311;22548;-34
2022/12/19 01:31:40;;;;;;;9.00;7.20;;;;;;;;;;105096;1316;24867;-34
2022/12/19 01:34:14;;;;;;;9.80;7.40;;;;;;;;;;105089;1320;24893;-34
2022/12/19 01:36:48;;;;;;;9.90;7.30;;;;;;;;;;105142;1316;22524;-34
2022/12/19 01:39:22;;;;;;;10.50;7.60;;;;;;;;;;105131;1314;22535;-34
2022/12/19 01:42:00;;;;;;;10.10;7.20;;;;;;;;;;105147;1316;22559;-34
2022/12/19 01:44:37;;;;;;;10.10;7.50;;;;;;;;;;105145;1308;22565;-34
2022/12/19 01:47:15;;;;;;;9.30;6.60;;;;;;;;;;105094;1311;25367;-34
2022/12/19 01:49:48;;;;;;;10.20;7.10;;;;;;;;;;105104;1304;22589;-34
2022/12/19 01:52:22;;;;;;;10.20;7.40;;;;;;;;;;105100;1320;22538;-34
2022/12/19 01:54:56;;;;;;;9.60;7.10;;;;;;;;;;105089;1304;22534;-34
2022/12/19 01:57:32;;;;;;;9.70;7.50;;;;;;;;;;105148;1301;25274;-34
2022/12/19 02:00:12;;;;;;;9.20;7.00;;;;;;;;;;105157;1316;22546;-34
2022/12/19 02:02:52;;;;;;;10.20;7.00;;;;;;;;;;105176;1294;25239;-34
2022/12/19 02:05:27;;;;;;;9.70;7.40;;;;;;;;;;105135;1313;24878;-34
2022/12/19 02:08:02;;;;;;;10.40;7.40;;;;;;;;;;105119;1316;25260;-34
2022/12/19 02:10:36;;;;;;;10.10;7.20;;;;;;;;;;105115;1313;22550;-34
2022/12/19 02:13:10;;;;;;;10.10;7.30;;;;;;;;;;105101;1308;25259;-34
2022/12/19 02:15:55;;;;;;;10.00;7.30;;;;;;;;;;105088;1312;22514;-34
2022/12/19 02:18:44;;;;;;;9.90;7.60;;;;;;;;;;105153;1316;22597;-34
2022/12/19 02:21:46;;;;;;;10.50;7.30;;;;;;;;;;105171;1307;22568;-34
2022/12/19 02:25:05;;;;;;;10.20;7.80;;;;;;;;;;105108;1316;22537;-34
2022/12/19 02:28:28;;;;;;;10.50;7.40;;;;;;;;;;104997;1304;23701;-34
2022/12/19 02:31:10;;;;;;;10.30;7.50;;;;;;;;;;105043;1316;22577;-33
2022/12/19 02:33:56;;;;;;;10.00;7.20;;;;;;;;;;105107;1311;22538;-34
2022/12/19 02:36:38;;;;;;;10.50;7.70;;;;;;;;;;105080;1311;22546;-34
2022/12/19 02:39:22;;;;;;;10.80;7.40;;;;;;;;;;105161;1314;22535;-34
2022/12/19 02:41:59;;;;;;;10.50;7.70;;;;;;;;;;105127;1316;22536;-34
2022/12/19 02:44:36;;;;;;;10.60;7.50;;;;;;;;;;105134;1304;22535;-33
2022/12/19 02:47:11;;;;;;;10.10;7.40;;;;;;;;;;105129;1310;22556;-34
2022/12/19 02:49:45;;;;;;;10.60;7.40;;;;;;;;;;105115;1310;25450;-34
2022/12/19 02:52:47;;;;;;;9.90;7.00;;;;;;;;;;105112;1316;25361;-34
2022/12/19 02:55:25;;;;;;;10.60;7.60;;;;;;;;;;105102;1297;22537;-34
2022/12/19 02:58:53;;;;;;;10.10;7.40;;;;;;;;;;105094;1304;22531;-33
2022/12/19 03:01:44;;;;;;;10.30;7.40;;;;;;;;;;105171;1315;25394;-34
2022/12/19 03:04:32;;;;;;;11.30;7.60;;;;;;;;;;105175;1314;22533;-33
2022/12/19 03:07:13;;;;;;;10.50;7.90;;;;;;;;;;105119;1305;22535;-33
2022/12/19 03:09:53;;;;;;;8.80;7.30;;;;;;;;;;105087;1303;22534;-34
2022/12/19 03:12:34;;;;;;;10.40;8.10;;;;;;;;;;105110;1304;22574;-33
2022/12/19 03:15:09;;;;;;;11.40;8.10;;;;;;;;;;105126;1313;22551;-33
2022/12/19 03:17:44;;;;;;;10.30;7.60;;;;;;;;;;105114;1304;22536;-33
2022/12/19 03:20:26;;;;;;;10.00;7.30;;;;;;;;;;105148;1314;22539;-33
2022/12/19 03:23:00;;;;;;;10.80;7.70;;;;;;;;;;105125;1316;24891;-34
2022/12/19 03:25:35;;;;;;;10.00;7.00;;;;;;;;;;105150;1313;22547;-34
2022/12/19 03:28:16;;;;;;;11.70;8.20;;;;;;;;;;105077;1305;22548;-34
2022/12/19 03:30:51;;;;;;;10.20;7.00;;;;;;;;;;105103;1314;22541;-34
2022/12/19 03:33:27;;;;;;;10.20;7.20;;;;;;;;;;105137;1316;22532;-34
2022/12/19 03:36:09;;;;;;;10.50;7.90;;;;;;;;;;105113;1319;22542;-34
2022/12/19 03:38:45;;;;;;;11.10;7.60;;;;;;;;;;105100;1316;22545;-34
2022/12/19 03:43:07;;;;;;;11.10;7.40;;;;;;;;;;105171;1315;22547;-34
2022/12/19 03:44:16;;;;;;;10.50;7.60;;;;;;;;;;105166;1313;22534;-34
2022/12/19 03:46:57;;;;;;;9.20;6.90;;;;;;;;;;105172;1317;22532;-34
2022/12/19 03:49:32;;;;;;;10.70;7.70;;;;;;;;;;105088;1305;22865;-34
2022/12/19 03:52:16;;;;;;;10.70;7.60;;;;;;;;;;105129;1304;22548;-34
2022/12/19 03:55:03;;;;;;;9.60;6.80;;;;;;;;;;105108;1316;22539;-34
2022/12/19 03:57:44;;;;;;;10.00;7.10;;;;;;;;;;105055;1311;22672;-34
2022/12/19 04:00:23;;;;;;;8.60;6.90;;;;;;;;;;105166;1311;22667;-34
2022/12/19 04:02:58;;;;;;;10.00;7.20;;;;;;;;;;105185;1316;25243;-34
2022/12/19 04:05:34;;;;;;;10.60;8.10;;;;;;;;;;105168;1309;23315;-34
2022/12/19 04:08:12;;;;;;;11.20;7.70;;;;;;;;;;105110;1304;25256;-34
2022/12/19 04:10:53;;;;;;;10.70;7.20;;;;;;;;;;105121;1308;22543;-34
2022/12/19 04:13:36;;;;;;;9.10;7.00;;;;;;;;;;105104;1304;22535;-34
2022/12/19 04:16:18;;;;;;;8.80;7.10;;;;;;;;;;105079;1310;22540;-34
2022/12/19 04:19:01;;;;;;;10.80;7.50;;;;;;;;;;105081;1314;22573;-34
2022/12/19 04:21:43;;;;;;;9.80;7.40;;;;;;;;;;105151;1293;22536;-34
2022/12/19 04:24:21;;;;;;;9.60;7.20;;;;;;;;;;105201;1314;22560;-34
2022/12/19 04:26:58;;;;;;;9.90;7.10;;;;;;;;;;105172;1305;25256;-34
2022/12/19 04:29:35;;;;;;;10.30;7.40;;;;;;;;;;105123;1314;24789;-34
2022/12/19 04:32:12;;;;;;;9.90;7.40;;;;;;;;;;105091;1316;22561;-34
2022/12/19 04:34:46;;;;;;;10.40;7.70;;;;;;;;;;105097;1308;22554;-34
2022/12/19 04:37:18;;;;;;;;;;;;;;;;;;105108;1314;22544;-34
2022/12/19 04:39:51;;;;;;;10.50;7.40;;;;;;;;;;105086;1309;22537;-34
2022/12/19 04:42:25;;;;;;;10.50;7.80;;;;;;;;;;105151;1308;22519;-34
2022/12/19 04:44:59;;;;;;;11.70;8.30;;;;;;;;;;105168;1314;25307;-34
2022/12/19 04:47:33;;;;;;;10.70;7.50;;;;;;;;;;105188;1296;26023;-34
2022/12/19 04:50:07;;;;;;;;;;;;;;;;;;105091;1296;22542;-34
2022/12/19 04:52:40;;;;;;;10.70;7.30;;;;;;;;;;105101;1298;22540;-34
2022/12/19 04:55:14;;;;;;;11.40;8.70;;;;;;;;;;105112;1320;25248;-34
2022/12/19 04:57:48;;;;;;;10.70;7.90;;;;;;;;;;105112;1312;22543;-34
2022/12/19 05:00:22;;;;;;;10.30;7.90;;;;;;;;;;105084;1309;25327;-34
2022/12/19 05:02:58;;;;;;;10.80;7.70;;;;;;;;;;105104;1315;22544;-34
2022/12/19 05:05:32;;;;;;;10.20;7.80;;;;;;;;;;105145;1298;26555;-34
2022/12/19 05:08:07;;;;;;;10.90;7.70;;;;;;;;;;105101;1313;25403;-34
2022/12/19 05:10:40;;;;;;;11.00;8.20;;;;;;;;;;105100;1313;23280;-34
2022/12/19 05:13:14;;;;;;;10.30;7.30;;;;;;;;;;105132;1313;22637;-34
2022/12/19 05:15:59;;;;;;;12.10;8.30;;;;;;;;;;105104;1316;22566;-34
2022/12/19 05:18:34;;;;;;;11.30;7.60;;;;;;;;;;105114;1306;22541;-34
2022/12/19 05:21:09;;;;;;;11.90;8.50;;;;;;;;;;105103;1313;22534;-34
2022/12/19 05:23:43;;;;;;;11.20;8.00;;;;;;;;;;105139;1315;23896;-34
2022/12/19 05:26:17;;;;;;;12.30;8.20;;;;;;;;;;105162;1305;22526;-34
2022/12/19 05:28:51;;;;;;;11.80;8.40;;;;;;;;;;105166;1304;25369;-34
2022/12/19 05:31:24;;;;;;;10.70;8.00;;;;;;;;;;105101;1314;22650;-34
2022/12/19 05:33:59;;;;;;;10.70;8.50;;;;;;;;;;105084;1307;22538;-34
2022/12/19 05:36:33;;;;;;;10.00;7.80;;;;;;;;;;105095;1304;22566;-34
2022/12/19 05:39:10;;;;;;;12.40;8.10;;;;;;;;;;105110;1312;22527;-34
2022/12/19 05:41:44;;;;;;;11.20;8.30;;;;;;;;;;105079;1313;22971;-34
2022/12/19 05:44:21;;;;;;;10.30;7.60;;;;;;;;;;105108;1313;22659;-34
2022/12/19 05:46:55;;;;;;;10.90;8.20;;;;;;;;;;105133;1315;22587;-34
2022/12/19 05:49:29;;;;;;;13.40;8.80;;;;;;;;;;105136;1305;22566;-34
2022/12/19 05:52:03;;;;;;;12.40;8.70;;;;;;;;;;105126;1306;22598;-34
2022/12/19 05:54:37;;;;;;;11.80;8.80;;;;;;;;;;105160;1316;22537;-33
2022/12/19 05:57:10;;;;;;;12.10;8.70;;;;;;;;;;105177;1306;22537;-34
2022/12/19 05:59:45;;;;;;;11.90;8.50;;;;;;;;;;105165;1318;24819;-34
2022/12/19 06:02:20;;;;;;;11.90;8.50;;;;;;;;;;105203;1316;24849;-34
2022/12/19 06:04:54;;;;;;;11.80;8.20;;;;;;;;;;105108;1317;22539;-34
2022/12/19 06:07:28;;;;;;;10.70;8.30;;;;;;;;;;105074;1313;22937;-34
2022/12/19 06:10:03;;;;;;;11.90;8.70;;;;;;;;;;105113;1313;25368;-34
2022/12/19 06:12:36;;;;;;;11.90;8.70;;;;;;;;;;105010;1301;103308;-33
2022/12/19 06:15:12;;;;;;;11.70;8.50;;;;;;;;;;105122;1304;25221;-33
2022/12/19 06:17:46;;;;;;;12.90;8.90;;;;;;;;;;105147;1313;22538;-33
2022/12/19 06:20:20;;;;;;;10.60;8.00;;;;;;;;;;105127;1313;25400;-33
2022/12/19 06:22:53;;;;;;;11.50;8.20;;;;;;;;;;105071;1313;22547;-34
2022/12/19 06:25:27;;;;;;;11.00;7.80;;;;;;;;;;105100;1305;25903;-33
2022/12/19 06:28:02;;;;;;;11.90;8.20;;;;;;;;;;105105;1314;25410;-33
2022/12/19 06:30:35;;;;;;;11.90;8.80;;;;;;;;;;105103;1320;22579;-33
2022/12/19 06:33:09;;;;;;;11.40;8.70;;;;;;;;;;105067;1313;22796;-33
2022/12/19 06:35:43;;;;;;;11.40;8.70;;;;;;;;;;105099;1308;25366;-33
2022/12/19 06:38:17;;;;;;;12.30;8.70;;;;;;;;;;105104;1316;25408;-34
2022/12/19 06:43:43;;;;;;;11.80;9.00;;;;;;;;;;105049;1314;24838;-34
2022/12/19 06:46:21;;;;;;;12.00;8.40;;;;;;;;;;105106;1316;24813;-35
2022/12/19 06:48:55;;;;;;;11.40;8.80;;;;;;;;;;105128;1319;22548;-34
2022/12/19 06:51:29;;;;;;;11.90;8.60;;;;;;;;;;105113;1314;25428;-35
2022/12/19 06:54:02;;;;;;;11.70;8.50;;;;;;;;;;105095;1298;22568;-34
2022/12/19 06:56:40;;;;;;;11.50;8.40;;;;;;;;;;105111;1313;22537;-33
2022/12/19 06:59:16;;;;;;;11.00;8.30;;;;;;;;;;105106;1316;22570;-33
2022/12/19 07:01:59;;;;;;;11.50;8.70;;;;;;;;;;105131;1308;22540;-33
2022/12/19 07:04:38;;;;;;;12.20;8.90;;;;;;;;;;105107;1309;22547;-33
2022/12/19 07:07:13;;;;;;;10.80;8.10;;;;;;;;;;105106;1316;23901;-32
2022/12/19 07:09:46;;;;;;;10.60;8.30;;;;;;;;;;105124;1314;22550;-32
2022/12/19 07:12:20;;;;;;;12.30;9.00;;;;;;;;;;105045;1312;22548;-32
2022/12/19 07:14:54;;;;;;;11.50;8.60;;;;;;;;;;105119;1316;22537;-32
2022/12/19 07:17:30;;;;;;;11.90;9.00;;;;;;;;;;105120;1316;23860;-32
2022/12/19 07:20:05;;;;;;;11.90;8.90;;;;;;;;;;105136;1306;25368;-32
2022/12/19 07:22:39;;;;;;;11.60;8.50;;;;;;;;;;105069;1313;25358;-33
2022/12/19 07:25:13;;;;;;;13.20;9.10;;;;;;;;;;105045;1298;22655;-33
2022/12/19 07:27:48;;;;;;;11.40;8.80;;;;;;;;;;105038;1313;22558;-32
2022/12/19 07:30:22;;;;;;;11.80;8.50;;;;;;;;;;105007;1294;22543;-31
2022/12/19 07:32:55;;;;;;;14.60;8.90;;;;;;;;;;104939;1315;22541;-32
2022/12/19 07:35:30;;;;;;;11.20;8.70;;;;;;;;;;105056;1297;22542;-32
2022/12/19 07:38:07;;;;;;;12.90;9.30;;;;;;;;;;105064;1316;22537;-32
2022/12/19 07:40:41;;;;;;;12.10;9.20;;;;;;;;;;105079;1314;22587;-34
2022/12/19 07:43:15;;;;;;;11.80;9.30;;;;;;;;;;104988;1298;22585;-34
2022/12/19 07:45:48;;;;;;;14.50;10.00;;;;;;;;;;104972;1317;22529;-34
2022/12/19 07:48:22;;;;;;;11.70;9.40;;;;;;;;;;104977;1307;22539;-34
2022/12/19 07:50:55;;;;;;;11.80;9.10;;;;;;;;;;104997;1319;22554;-36
2022/12/19 07:53:30;;;;;;;11.20;9.10;;;;;;;;;;104936;1308;22676;-36
2022/12/19 07:56:04;;;;;;;13.00;9.90;;;;;;;;;;105005;1298;22616;-34
2022/12/19 07:58:38;;;;;;;12.80;9.60;;;;;;;;;;105023;1308;22541;-34
2022/12/19 08:01:11;;;;;;;;;;;;;;;;;;105086;1316;22573;-34
2022/12/19 08:03:44;;;;;;;13.60;9.50;;;;;;;;;;105037;1312;22534;-34
2022/12/19 08:06:17;;;;;;;12.50;9.50;;;;;;;;;;105060;1316;25205;-34
2022/12/19 08:08:51;;;;;;;13.20;9.80;;;;;;;;;;105044;1316;25836;-34
2022/12/19 08:11:28;;;;;;;11.30;9.40;;;;;;;;;;105065;1314;22608;-34
2022/12/19 08:14:01;;;;;;;12.60;9.90;;;;;;;;;;104998;1313;22591;-34
2022/12/19 08:16:36;;;;;;;12.00;9.10;;;;;;;;;;105092;1314;22554;-33
2022/12/19 08:19:30;;;;;;;11.10;8.80;;;;;;;;;;105086;1316;26050;-33
2022/12/19 08:22:03;;;;;;;13.20;9.40;;;;;;;;;;105090;1310;22587;-33
2022/12/19 08:24:37;;;;;;;12.70;10.30;;;;;;;;;;105049;1313;26043;-32
2022/12/19 08:27:10;;;;;;;12.70;9.50;;;;;;;;;;105060;1308;27705;-33
2022/12/19 08:29:44;;;;;;;12.60;9.80;;;;;;;;;;105049;1314;25208;-32
2022/12/19 08:32:19;;;;;;;12.40;9.40;;;;;;;;;;105268;1313;22659;-33
2022/12/19 08:34:55;;;;;;;11.20;8.80;;;;;;;;;;105197;1302;22530;-34
2022/12/19 08:37:29;;;;;;;13.70;9.80;;;;;;;;;;105298;1313;22552;-34
2022/12/19 08:40:01;;;;;;;;;;;;;;;;;;105271;1310;26389;-35
2022/12/19 08:42:34;;;;;;;13.60;10.30;;;;;;;;;;105235;1294;22538;-35
2022/12/19 08:45:08;;;;;;;;;;;;;;;;;;105245;1301;22561;-33
2022/12/19 08:47:40;;;;;;;;;;;;;;;;;;105285;1313;22508;-32
2022/12/19 08:50:14;;;;;;;14.70;9.50;;;;;;;;;;105255;1304;22545;-34
2022/12/19 08:52:48;;;;;;;11.40;9.20;;;;;;;;;;105268;1312;22638;-33
2022/12/19 08:55:22;;;;;;;12.90;9.30;;;;;;;;;;105207;1313;22536;-33
2022/12/19 08:57:54;;;;;;;12.40;9.90;;;;;;;;;;105241;1306;24821;-33
2022/12/19 09:00:28;;;;;;;13.60;9.80;;;;;;;;;;105239;1313;22855;-33
2022/12/19 09:03:02;;;;;;;11.40;9.60;;;;;;;;;;105258;1312;24926;-33
2022/12/19 09:05:41;;;;;;;10.90;8.50;;;;;;;;;;105130;1305;22531;-33
2022/12/19 09:08:35;;;;;;;12.20;9.70;;;;;;;;;;105180;1313;22591;-33
2022/12/19 09:11:11;;;;;;;12.70;8.90;;;;;;;;;;105293;1307;22536;-34
2022/12/19 09:13:46;;;;;;;11.80;9.10;;;;;;;;;;105276;1313;22535;-33
2022/12/19 09:16:23;;;;;;;11.40;8.90;;;;;;;;;;105242;1301;22534;-33
2022/12/19 09:18:58;;;;;;;12.50;9.60;;;;;;;;;;105293;1300;23110;-33
2022/12/19 09:21:32;;;;;;;12.80;9.20;;;;;;;;;;105267;1294;22535;-34
2022/12/19 09:24:07;;;;;;;13.10;9.60;;;;;;;;;;105202;1313;22534;-34
2022/12/19 09:26:43;;;;;;;13.30;9.00;;;;;;;;;;105240;1311;22553;-34
2022/12/19 09:29:17;;;;;;;11.90;9.10;;;;;;;;;;105278;1294;22549;-34
2022/12/19 09:31:53;;;;;;;13.50;9.40;;;;;;;;;;105228;1296;22534;-34
2022/12/19 09:34:30;;;;;;;11.90;9.60;;;;;;;;;;105255;1313;22535;-34
2022/12/19 09:37:14;;;;;;;12.10;8.60;;;;;;;;;;105240;1306;22596;-34
2022/12/19 09:39:50;;;;;;;11.90;9.20;;;;;;;;;;105284;1301;24428;-34
2022/12/19 09:42:57;;;;;;;11.60;9.30;;;;;;;;;;105208;1300;22558;-33
2022/12/19 09:45:56;;;;;;;11.90;8.40;;;;;;;;;;105158;1309;22542;-33
2022/12/19 09:48:30;;;;;;;12.30;9.10;;;;;;;;;;105230;1313;25027;-34
2022/12/19 09:51:09;;;;;;;11.60;8.60;;;;;;;;;;105145;1316;23013;-33
2022/12/19 09:53:58;;;;;;;11.50;8.60;;;;;;;;;;105133;1294;22538;-34
2022/12/19 09:56:38;;;;;;;10.70;8.70;;;;;;;;;;105142;1309;22538;-35
2022/12/19 09:59:29;;;;;;;11.80;8.40;;;;;;;;;;105232;1293;22579;-34
2022/12/19 10:02:32;;;;;;;10.90;8.30;;;;;;;;;;105238;1313;22532;-33
2022/12/19 10:05:19;;;;;;;11.90;8.70;;;;;;;;;;105271;1312;23614;-33
2022/12/19 10:08:21;;;;;;;11.40;8.90;;;;;;;;;;105186;1310;22575;-32
2022/12/19 10:11:08;;;;;;;10.90;9.40;;;;;;;;;;105252;1307;25372;-33
2022/12/19 10:14:26;;;;;;;11.70;8.40;;;;;;;;;;105226;1301;25367;-34
2022/12/19 10:17:14;;;;;;;12.20;8.90;;;;;;;;;;105115;1313;24613;-34
2022/12/19 10:20:15;;;;;;;11.20;8.90;;;;;;;;;;105130;1309;22559;-33
2022/12/19 10:22:59;;;;;;;11.60;8.30;;;;;;;;;;105153;1315;22538;-33
2022/12/19 10:25:52;;;;;;;10.90;8.30;;;;;;;;;;105120;1306;22847;-33
2022/12/19 10:28:45;;;;;;;11.40;9.40;;;;;;;;;;105144;1310;22537;-33
2022/12/19 10:31:32;;;;;;;11.60;8.60;;;;;;;;;;105173;1308;25685;-34
2022/12/19 10:34:16;;;;;;;11.30;8.80;;;;;;;;;;105149;1307;22535;-34
2022/12/19 10:36:51;;;;;;;;;;;;;;;;;;105134;1312;22519;-33
2022/12/19 10:39:59;;;;;;;11.20;9.00;;;;;;;;;;105218;1301;22649;-34
2022/12/19 10:42:44;;;;;;;10.50;8.30;;;;;;;;;;105179;1313;22544;-34
2022/12/19 10:45:21;;;;;;;11.20;8.70;;;;;;;;;;105166;1313;22562;-34
2022/12/19 10:47:59;;;;;;;10.50;8.50;;;;;;;;;;105032;1311;24823;-32
2022/12/19 10:50:33;;;;;;;11.10;8.70;;;;;;;;;;105051;1314;22542;-33
2022/12/19 10:53:13;;;;;;;10.60;9.30;;;;;;;;;;105176;1314;22540;-33
2022/12/19 10:55:50;;;;;;;10.70;8.70;;;;;;;;;;105218;1315;22551;-33
2022/12/19 10:58:27;;;;;;;12.10;9.40;;;;;;;;;;105177;1308;22563;-33
2022/12/19 11:01:17;;;;;;;12.90;10.20;;;;;;;;;;105196;1313;22535;-32
2022/12/19 11:04:17;;;;;;;11.80;8.90;;;;;;;;;;105222;1303;22595;-32
2022/12/19 11:07:03;;;;;;;11.90;9.90;;;;;;;;;;105169;1306;22562;-32
2022/12/19 11:09:41;;;;;;;11.50;9.30;;;;;;;;;;105482;1311;24923;-32
2022/12/19 11:12:27;;;;;;;11.70;9.50;;;;;;;;;;105208;1303;22537;-32
2022/12/19 11:15:23;;;;;;;12.80;9.20;;;;;;;;;;105196;1312;22531;-32
2022/12/19 11:18:16;;;;;;;11.90;9.50;;;;;;;;;;105027;1294;22564;-33
2022/12/19 11:21:19;;;;;;;13.00;10.20;;;;;;;;;;105168;1313;22542;-34
2022/12/19 11:24:28;;;;;;;12.60;9.60;;;;;;;;;;105160;1310;22548;-34
2022/12/19 11:27:44;;;;;;;11.00;8.60;;;;;;;;;;105119;1315;23483;-33
2022/12/19 11:30:38;;;;;;;12.70;9.30;;;;;;;;;;105077;1304;22531;-34
2022/12/19 11:33:32;;;;;;;13.80;10.60;;;;;;;;;;105148;1313;22824;-34
2022/12/19 11:36:11;;;;;;;12.30;9.40;;;;;;;;;;105057;1300;22608;-33
2022/12/19 11:38:52;;;;;;;12.20;9.30;;;;;;;;;;104561;1317;58787;-34
2022/12/19 11:41:37;;;;;;;12.60;9.40;;;;;;;;;;104862;1300;24223;-35
2022/12/19 11:44:26;;;;;;;12.00;9.30;;;;;;;;;;104812;1312;24068;-35
2022/12/19 11:47:16;;;;;;;12.00;9.20;;;;;;;;;;104834;1317;22552;-35
2022/12/19 11:49:58;;;;;;;11.70;9.80;;;;;;;;;;104731;1319;22547;-34
2022/12/19 11:52:42;;;;;;;13.00;9.30;;;;;;;;;;104677;1321;24884;-34
2022/12/19 11:55:47;;;;;;;12.10;8.80;;;;;;;;;;104797;1321;22569;-35
2022/12/19 11:58:20;;;;;;;11.30;8.50;;;;;;;;;;104811;1306;22558;-35
2022/12/19 12:01:17;;;;;;;10.60;8.70;;;;;;;;;;104818;1316;22554;-34
2022/12/19 12:04:37;;;;;;;11.10;9.40;;;;;;;;;;104829;1315;22531;-34
2022/12/19 12:07:11;;;;;;;11.80;8.90;;;;;;;;;;104840;1306;22543;-34
2022/12/19 12:10:13;;;;;;;;;;;;;;;;;;104727;1311;22570;-34
2022/12/19 12:13:21;;;;;;;11.90;9.10;;;;;;;;;;104777;1314;23389;-33
2022/12/19 12:16:17;;;;;;;11.10;8.90;;;;;;;;;;104694;1315;24792;-33
2022/12/19 12:19:22;;;;;;;11.10;8.40;;;;;;;;;;104781;1308;22665;-33
2022/12/19 12:22:35;;;;;;;10.70;9.00;;;;;;;;;;104771;1309;26390;-34
2022/12/19 12:25:53;;;;;;;11.70;8.60;;;;;;;;;;104820;1307;22545;-34
2022/12/19 12:28:58;;;;;;;11.00;8.70;;;;;;;;;;104836;1316;25353;-31
2022/12/19 12:32:10;;;;;;;11.20;8.60;;;;;;;;;;104713;1316;22679;-33
2022/12/19 12:35:18;;;;;;;10.10;8.00;;;;;;;;;;104795;1316;22537;-33
2022/12/19 12:38:41;;;;;;;11.30;8.80;;;;;;;;;;104686;1298;22568;-33
2022/12/19 12:42:02;;;;;;;12.40;9.20;;;;;;;;;;104796;1316;22625;-33
2022/12/19 12:44:22;;;;;;;11.50;8.40;;;;;;;;;;104805;1313;22544;-34
2022/12/19 12:47:17;;;;;;;11.40;9.30;;;;;;;;;;104830;1310;22558;-34
2022/12/19 12:49:55;;;;;;;12.80;9.30;;;;;;;;;;104830;1309;22544;-34
2022/12/19 12:52:36;;;;;;;11.20;8.70;;;;;;;;;;104723;1316;22558;-33
2022/12/19 12:55:20;;;;;;;11.90;8.50;;;;;;;;;;104769;1308;22556;-34
2022/12/19 12:57:55;;;;;;;11.20;8.80;;;;;;;;;;104657;1303;22569;-33
2022/12/19 13:00:31;;;;;;;11.80;9.00;;;;;;;;;;104770;1309;26011;-33
2022/12/19 13:03:12;;;;;;;11.20;8.90;;;;;;;;;;104908;1316;25391;-34
2022/12/19 13:06:07;;;;;;;10.70;8.70;;;;;;;;;;104810;1316;25429;-33
2022/12/19 13:08:47;;;;;;;11.10;8.80;;;;;;;;;;104812;1318;22541;-33
2022/12/19 13:14:50;;;;;;;13.30;8.40;;;;;;;;;;104717;1309;25204;-33
2022/12/19 13:18:08;;;;;;;11.20;8.40;;;;;;;;;;104793;1317;25266;-34
2022/12/19 13:20:49;;;;;;;10.80;8.70;;;;;;;;;;104735;1319;22545;-34
2022/12/19 13:23:55;;;;;;;11.30;8.70;;;;;;;;;;104770;1309;22558;-34
2022/12/19 13:26:51;;;;;;;11.50;8.70;;;;;;;;;;104750;1322;22561;-33
2022/12/19 13:29:56;;;;;;;11.20;8.70;;;;;;;;;;104821;1312;22544;-33
2022/12/19 13:32:54;;;;;;;12.60;8.80;;;;;;;;;;104757;1314;25260;-34
2022/12/19 13:35:38;;;;;;;10.60;8.10;;;;;;;;;;104759;1303;22569;-35
2022/12/19 13:38:48;;;;;;;11.90;8.60;;;;;;;;;;104786;1310;22548;-33
2022/12/19 13:44:41;;;;;;;12.50;9.50;;;;;;;;;;104840;1310;22554;-33
2022/12/19 13:47:16;;;;;;;12.10;10.10;;;;;;;;;;104833;1306;22541;-33
2022/12/19 13:49:57;;;;;;;11.80;10.00;;;;;;;;;;104796;1320;22536;-34
2022/12/19 13:52:30;;;;;;;14.10;10.70;;;;;;;;;;104767;1310;23654;-34
2022/12/19 13:55:02;;;;;;;;;;;;;;;;;;104804;1316;22529;-33
2022/12/19 13:57:39;;;;;;;12.20;9.80;;;;;;;;;;104786;1311;24134;-33
2022/12/19 14:00:21;;;;;;;11.90;9.90;;;;;;;;;;104764;1300;22588;-33
2022/12/19 14:02:57;;;;;;;13.10;9.80;;;;;;;;;;104765;1299;22595;-34
2022/12/19 14:05:37;;;;;;;12.40;10.50;;;;;;;;;;104844;1320;22590;-33
2022/12/19 14:08:31;;;;;;;13.80;10.30;;;;;;;;;;104829;1300;22563;-32
2022/12/19 14:11:09;;;;;;;12.10;10.40;;;;;;;;;;104819;1297;22545;-32
2022/12/19 14:17:14;;;;;;;12.20;10.20;;;;;;;;;;104235;1322;22564;-32
2022/12/19 14:19:51;;;;;;;12.80;10.20;;;;;;;;;;104259;1313;24285;-33
2022/12/19 14:22:45;;;;;;;13.20;10.00;;;;;;;;;;104524;1317;24862;-35
2022/12/19 14:25:20;;;;;;;13.10;10.00;;;;;;;;;;104790;1309;22556;-34
2022/12/19 14:28:19;;;;;;;12.80;10.40;;;;;;;;;;104785;1316;24779;-34
2022/12/19 14:31:05;;;;;;;12.50;10.70;;;;;;;;;;104803;1306;22565;-34
2022/12/19 14:33:43;;;;;;;14.10;10.90;;;;;;;;;;104761;1321;25309;-34
2022/12/19 14:36:38;;;;;;;12.70;9.90;;;;;;;;;;104767;1316;22559;-34
2022/12/19 14:39:19;;;;;;;12.20;10.10;;;;;;;;;;104776;1316;22557;-34
2022/12/19 14:45:39;;;;;;;11.60;9.90;;;;;;;;;;104786;1316;23879;-34
2022/12/19 14:48:45;;;;;;;13.10;10.40;;;;;;;;;;104806;1316;22590;-35
2022/12/19 14:51:40;;;;;;;13.60;10.20;;;;;;;;;;104821;1319;25416;-33
2022/12/19 14:54:34;;;;;;;12.20;9.70;;;;;;;;;;104730;1315;22561;-34
2022/12/19 14:57:27;;;;;;;12.50;10.10;;;;;;;;;;104761;1309;22546;-34
2022/12/19 15:00:31;;;;;;;11.80;10.00;;;;;;;;;;104718;1318;22574;-34
2022/12/19 15:03:30;;;;;;;12.30;9.60;;;;;;;;;;104755;1306;22610;-33
2022/12/19 15:06:13;;;;;;;12.80;10.30;;;;;;;;;;104803;1300;22817;-33
2022/12/19 15:09:12;;;;;;;13.10;10.00;;;;;;;;;;104814;1313;22584;-33
2022/12/19 15:15:40;;;;;;;13.30;10.10;;;;;;;;;;104725;1322;23638;-35
2022/12/19 15:18:33;;;;;;;12.40;9.80;;;;;;;;;;104704;1313;24815;-36
2022/12/19 15:21:11;;;;;;;13.30;10.20;;;;;;;;;;104752;1305;22551;-34
2022/12/19 15:23:46;;;;;;;11.70;9.20;;;;;;;;;;104767;1309;22548;-34
2022/12/19 15:26:28;;;;;;;11.70;9.50;;;;;;;;;;104771;1307;22543;-33
2022/12/19 15:29:02;;;;;;;12.80;10.00;;;;;;;;;;104723;1307;46681;-34
2022/12/19 15:31:39;;;;;;;13.00;10.00;;;;;;;;;;104803;1322;22588;-37
2022/12/19 15:34:25;;;;;;;13.20;10.00;;;;;;;;;;104783;1315;22549;-38
2022/12/19 15:37:13;;;;;;;13.60;9.50;;;;;;;;;;104773;1308;22545;-36
2022/12/19 15:39:47;;;;;;;12.80;9.40;;;;;;;;;;104789;1316;23861;-37
2022/12/19 15:42:25;;;;;;;12.40;10.10;;;;;;;;;;104772;1313;22562;-37
2022/12/19 15:44:59;;;;;;;12.50;10.20;;;;;;;;;;104769;1313;22555;-33
2022/12/19 15:47:36;;;;;;;13.90;9.80;;;;;;;;;;104814;1307;22573;-33
2022/12/19 15:50:22;;;;;;;11.30;9.40;;;;;;;;;;104825;1312;22585;-34
2022/12/19 15:52:59;;;;;;;12.70;9.60;;;;;;;;;;104853;1310;22602;-34
2022/12/19 15:55:35;;;;;;;12.70;9.60;;;;;;;;;;104810;1317;22610;-34
2022/12/19 15:58:10;;;;;;;12.30;10.20;;;;;;;;;;104771;1316;23026;-34
2022/12/19 16:00:51;;;;;;;13.80;10.60;;;;;;;;;;104778;1320;22576;-35
2022/12/19 16:03:25;;;;;;;13.30;9.90;;;;;;;;;;104789;1300;22541;-35